Century Venus — 3FXD2 — position and weather

sailwx.info

Track history (hours):
 
Tides and Currents Weather Stations Pressure Air Temp Water Temp Dewpoint Dewpoint Depression Visibility Wind Speed Wind Dir Waves Ship Positions

Century Venus

Last reported at 2016-Jul-23 03:13 UTC. Time now 2016-Aug-25 16:45 UTC.
Position N 29°14' W 094°30'.
Warning: this ship's position is 33 days out of date.

Length 137 m; draft 5.5 m.

Type: Cargo ship. MMSI: 357069000.

Date/timePositionNaut miles runAvg speedWind from/ knotsBaromVisibWave heightAir tempDewpointWater temp
2016-Jul-23 03:13N 29°14' W 094°30'811.9
2016-Jul-23 02:33N 29°10' W 094°23'1411.8
2016-Jul-23 01:24N 29°02' W 094°10'2412.0
2016-Jul-22 23:25N 28°48' W 093°48'  
2016-Jul-14 13:08N 25°46' W 079°36'7 9.5
2016-Jul-14 12:23N 25°53' W 079°35'8 9.6
2016-Jul-14 11:33N 26°01' W 079°33'10 9.9
2016-Jul-14 10:33N 26°10' W 079°31'28910.3
2016-Jul-13 06:29N 30°59' W 079°57'2512.1
2016-Jul-13 04:23N 31°23' W 080°05'1011.8
2016-Jul-13 03:30N 31°33' W 080°08'  
Track history (hours):
 
Tides and Currents Weather Stations Pressure Air Temp Water Temp Dewpoint Dewpoint Depression Visibility Wind Speed Wind Dir Waves Ship Positions

Century Venus

Last reported at 2016-Jul-23 03:13 UTC. Time now 2016-Aug-25 16:45 UTC.
Position N 29°14' W 094°30'.
Warning: this ship's position is 33 days out of date.

Length 137 m; draft 5.5 m.

Type: Cargo ship. MMSI: 357069000.

Date/timePositionNaut miles runAvg speedWind from/ knotsBaromVisibWave heightAir tempDewpointWater temp
2016-Jul-23 03:13N 29°14' W 094°30'811.9
2016-Jul-23 02:33N 29°10' W 094°23'1411.8
2016-Jul-23 01:24N 29°02' W 094°10'2412.0
2016-Jul-22 23:25N 28°48' W 093°48'  
2016-Jul-14 13:08N 25°46' W 079°36'7 9.5
2016-Jul-14 12:23N 25°53' W 079°35'8 9.6
2016-Jul-14 11:33N 26°01' W 079°33'10 9.9
2016-Jul-14 10:33N 26°10' W 079°31'28910.3
2016-Jul-13 06:29N 30°59' W 079°57'2512.1
2016-Jul-13 04:23N 31°23' W 080°05'1011.8
2016-Jul-13 03:30N 31°33' W 080°08'  

Dump ship's entire track history